Details From UUDD - Moscou Domodedovo
To RPVP - Puerto Princesa
Flight Number -
Tags Generated
Created
Modified
Stats Distance 4,614 nm / 8,545 km
Max Altitude 0 ft / 0 m
Waypoints 6
Social Downloads 1
Likes 0
Share VATSIM

Download

Looking for another format? Having issues loading an existing format? Contact us
Advertisement - Login to hide

Notes

Generated

Route

UUDD TOLMA DOGUR ARPAL PR RPVP

ID Type Via Altitude Latitude Longitude Leg Dist Tot Dist Heading (true) Name
O UUDD APT - 0 ft / 0 m 55.42000˚ 37.88000˚ - 0 nm - -
TOLMA FIX - 0 ft / 0 m 54.94667˚ 44.65833˚ 234 nm 234 nm 94° / 100° -
DOGUR FIX - 0 ft / 0 m 54.40000˚ 50.31667˚ 199 nm 433 nm 97° / 102° -
ARPAL FIX - 0 ft / 0 m 50.80222˚ 67.35472˚ 656 nm 1089 nm 102° / 116° -
PR VOR - 0 ft / 0 m 9.74133˚ 118.75294˚ 3524 nm 4613 nm 116° / 145° PUERTO PRINCESA VOR-DME
O RPVP APT - 0 ft / 0 m 9.74263˚ 118.74689˚ 0 nm 4614 nm 282° / 282° -

Altitude Profile

Advertisement - Login to hide

Weather


0- 5 10 15 20 25 30 35+ Temperature / ° C

Clouds and Precipitation
Forecast for 2017-12-11 12:00 UTC. Updated an hour ago

Ground ~20,000 ft ~40,000 ft Winds

UUDD

Details ICAO UUDD (DME)
Name Moscou Domodedovo
Region Russia
Timezone Europe/Moscow (UTC+3.0)
Stats Elevation 588 ft / 179 m (AMSL)
Location 55.409191° 37.901432°
Runways 3
Magnetic Variation 11.024° E

METAR

UUDD 110800Z 14007MPS 9999 -SN BKN005 01/M00 Q1005 R88/290095 NOSIG

Decode

TAF

TAF UUDD 110459Z 1106/1212 16008G13MPS 6000 BKN011 TX03/1112Z TNM02/1203Z TEMPO 1106/1119 1200 SHSNRA SCT003 BKN012CB BECMG 1114/1116 18004MPS BECMG 1118/1119 24008MPS TEMPO 1120/1203 2100 -SHSN SCT007 BKN012CB BECMG 1204/1206 18003MPS

Decode

Departure Runways

ID Width Length Bearing (true) Bearing (mag) Surface Threshold Offset Overrun Length
14C 148 ft / 45 m 8,754 ft / 2,668 m 146.47° 135.45° Concrete 0 ft / 0 m 0 ft / 0 m
14L 174 ft / 53 m 12,382 ft / 3,774 m 145.59° 134.57° Concrete 0 ft / 0 m 0 ft / 0 m
14R 230 ft / 70 m 11,395 ft / 3,473 m 145.45° 134.43° Concrete 0 ft / 0 m 0 ft / 0 m
32C 148 ft / 45 m 8,754 ft / 2,668 m 326.49° 315.47° Concrete 0 ft / 0 m 0 ft / 0 m
32L 230 ft / 70 m 11,395 ft / 3,473 m 325.48° 314.46° Concrete 0 ft / 0 m 0 ft / 0 m
32R 174 ft / 53 m 12,382 ft / 3,774 m 325.61° 314.59° Concrete 0 ft / 0 m 0 ft / 0 m

RPVP

Details ICAO RPVP (PPS)
Name PUERTO PRINCESA
Region Philippines
Timezone Asia/Manila (UTC+8.0)
Stats Elevation 71 ft / 22 m (AMSL)
Location 9.742119° 118.758730°
Runways 1
Magnetic Variation 1.154° W

METAR

RPVP 110800Z 12006KT 9999 FEW018 SCT250 31/25 Q1006 RMK A2971

Decode

TAF

Not found

Destination Runways

ID Width Length Bearing (true) Bearing (mag) Surface Threshold Offset Overrun Length
09 148 ft / 45 m 8,526 ft / 2,599 m 92.52° 93.67° Concrete 0 ft / 0 m 560 ft / 171 m
27 148 ft / 45 m 8,526 ft / 2,599 m 272.52° 273.67° Concrete 0 ft / 0 m 574 ft / 175 m